sensor_id;sensor_type;location;lat;lon;timestamp;temperature;humidity
16313;DHT22;8265;52.622;13.296;2023-11-19T00:00:43;3.50;88.40
16313;DHT22;8265;52.622;13.296;2023-11-19T00:06:05;3.50;89.20
16313;DHT22;8265;52.622;13.296;2023-11-19T00:11:29;3.60;88.30
16313;DHT22;8265;52.622;13.296;2023-11-19T00:16:46;3.60;88.20
16313;DHT22;8265;52.622;13.296;2023-11-19T00:22:07;3.60;87.70
16313;DHT22;8265;52.622;13.296;2023-11-19T00:27:28;3.50;86.90
16313;DHT22;8265;52.622;13.296;2023-11-19T00:32:49;3.70;86.90
16313;DHT22;8265;52.622;13.296;2023-11-19T00:38:10;3.60;86.30
16313;DHT22;8265;52.622;13.296;2023-11-19T00:43:31;3.60;87.20
16313;DHT22;8265;52.622;13.296;2023-11-19T00:48:52;3.60;86.90
16313;DHT22;8265;52.622;13.296;2023-11-19T00:54:13;3.70;86.50
16313;DHT22;8265;52.622;13.296;2023-11-19T00:59:34;3.70;86.10
16313;DHT22;8265;52.622;13.296;2023-11-19T01:04:55;3.80;86.30
16313;DHT22;8265;52.622;13.296;2023-11-19T01:10:16;3.80;85.80
16313;DHT22;8265;52.622;13.296;2023-11-19T01:15:37;3.90;84.80
16313;DHT22;8265;52.622;13.296;2023-11-19T01:20:58;3.90;84.90
16313;DHT22;8265;52.622;13.296;2023-11-19T01:26:19;3.90;85.10
16313;DHT22;8265;52.622;13.296;2023-11-19T01:31:40;4.00;84.70
16313;DHT22;8265;52.622;13.296;2023-11-19T01:37:01;4.00;84.30
16313;DHT22;8265;52.622;13.296;2023-11-19T01:42:22;4.00;83.60
16313;DHT22;8265;52.622;13.296;2023-11-19T01:47:43;4.00;83.20
16313;DHT22;8265;52.622;13.296;2023-11-19T01:53:04;4.10;82.90
16313;DHT22;8265;52.622;13.296;2023-11-19T01:58:25;4.20;82.60
16313;DHT22;8265;52.622;13.296;2023-11-19T02:03:46;4.20;82.60
16313;DHT22;8265;52.622;13.296;2023-11-19T02:09:08;4.20;83.60
16313;DHT22;8265;52.622;13.296;2023-11-19T02:14:28;4.10;83.20
16313;DHT22;8265;52.622;13.296;2023-11-19T02:19:49;4.10;84.30
16313;DHT22;8265;52.622;13.296;2023-11-19T02:25:25;4.00;83.90
16313;DHT22;8265;52.622;13.296;2023-11-19T02:30:31;4.00;84.60
16313;DHT22;8265;52.622;13.296;2023-11-19T02:35:52;4.10;84.40
16313;DHT22;8265;52.622;13.296;2023-11-19T02:41:13;4.10;84.50
16313;DHT22;8265;52.622;13.296;2023-11-19T02:46:34;4.20;83.70
16313;DHT22;8265;52.622;13.296;2023-11-19T02:51:55;4.20;83.40
16313;DHT22;8265;52.622;13.296;2023-11-19T02:57:16;4.20;82.90
16313;DHT22;8265;52.622;13.296;2023-11-19T03:02:39;4.20;83.60
16313;DHT22;8265;52.622;13.296;2023-11-19T03:07:58;4.20;83.60
16313;DHT22;8265;52.622;13.296;2023-11-19T03:13:19;4.20;84.10
16313;DHT22;8265;52.622;13.296;2023-11-19T03:18:40;4.20;84.20
16313;DHT22;8265;52.622;13.296;2023-11-19T03:24:01;4.20;84.30
16313;DHT22;8265;52.622;13.296;2023-11-19T03:29:22;4.10;86.00
16313;DHT22;8265;52.622;13.296;2023-11-19T03:34:43;4.00;87.90
16313;DHT22;8265;52.622;13.296;2023-11-19T03:40:04;3.90;90.40
16313;DHT22;8265;52.622;13.296;2023-11-19T03:45:25;3.90;90.80
16313;DHT22;8265;52.622;13.296;2023-11-19T03:50:46;3.70;91.80
16313;DHT22;8265;52.622;13.296;2023-11-19T03:56:07;3.60;93.20
16313;DHT22;8265;52.622;13.296;2023-11-19T04:01:28;3.50;93.20
16313;DHT22;8265;52.622;13.296;2023-11-19T04:06:49;3.50;94.00
16313;DHT22;8265;52.622;13.296;2023-11-19T04:12:10;3.50;94.50
16313;DHT22;8265;52.622;13.296;2023-11-19T04:17:31;3.50;94.40
16313;DHT22;8265;52.622;13.296;2023-11-19T04:22:51;3.50;94.70
16313;DHT22;8265;52.622;13.296;2023-11-19T04:28:12;3.50;94.80
16313;DHT22;8265;52.622;13.296;2023-11-19T04:33:33;3.50;95.70
16313;DHT22;8265;52.622;13.296;2023-11-19T04:38:55;3.50;95.90
16313;DHT22;8265;52.622;13.296;2023-11-19T04:44:16;3.30;96.20
16313;DHT22;8265;52.622;13.296;2023-11-19T04:49:39;3.30;96.50
16313;DHT22;8265;52.622;13.296;2023-11-19T04:54:57;3.40;96.90
16313;DHT22;8265;52.622;13.296;2023-11-19T05:00:18;3.40;97.30
16313;DHT22;8265;52.622;13.296;2023-11-19T05:05:39;3.50;97.60
16313;DHT22;8265;52.622;13.296;2023-11-19T05:11:00;3.30;97.60
16313;DHT22;8265;52.622;13.296;2023-11-19T05:16:21;3.40;97.90
16313;DHT22;8265;52.622;13.296;2023-11-19T05:21:42;3.40;97.90
16313;DHT22;8265;52.622;13.296;2023-11-19T05:27:04;3.40;97.90
16313;DHT22;8265;52.622;13.296;2023-11-19T05:32:24;3.40;97.90
16313;DHT22;8265;52.622;13.296;2023-11-19T05:37:45;3.40;98.20
16313;DHT22;8265;52.622;13.296;2023-11-19T05:43:06;3.50;98.50
16313;DHT22;8265;52.622;13.296;2023-11-19T05:48:27;3.40;98.40
16313;DHT22;8265;52.622;13.296;2023-11-19T05:53:48;3.50;98.80
16313;DHT22;8265;52.622;13.296;2023-11-19T05:59:09;3.50;98.70
16313;DHT22;8265;52.622;13.296;2023-11-19T06:04:30;3.60;98.60
16313;DHT22;8265;52.622;13.296;2023-11-19T06:09:51;3.60;98.60
16313;DHT22;8265;52.622;13.296;2023-11-19T06:15:12;3.70;98.60
16313;DHT22;8265;52.622;13.296;2023-11-19T06:20:33;3.70;98.70
16313;DHT22;8265;52.622;13.296;2023-11-19T06:25:54;3.70;98.60
16313;DHT22;8265;52.622;13.296;2023-11-19T06:31:15;3.70;98.80
16313;DHT22;8265;52.622;13.296;2023-11-19T06:36:36;3.80;98.90
16313;DHT22;8265;52.622;13.296;2023-11-19T06:41:57;3.90;98.80
16313;DHT22;8265;52.622;13.296;2023-11-19T06:47:18;3.90;98.90
16313;DHT22;8265;52.622;13.296;2023-11-19T06:52:39;3.90;98.90
16313;DHT22;8265;52.622;13.296;2023-11-19T06:58:00;3.90;99.10
16313;DHT22;8265;52.622;13.296;2023-11-19T07:03:21;3.90;98.90
16313;DHT22;8265;52.622;13.296;2023-11-19T07:08:42;3.90;99.00
16313;DHT22;8265;52.622;13.296;2023-11-19T07:14:15;3.90;99.30
16313;DHT22;8265;52.622;13.296;2023-11-19T07:19:24;3.90;99.50
16313;DHT22;8265;52.622;13.296;2023-11-19T07:24:45;4.00;99.60
16313;DHT22;8265;52.622;13.296;2023-11-19T07:30:06;4.00;99.60
16313;DHT22;8265;52.622;13.296;2023-11-19T07:35:27;4.00;99.60
16313;DHT22;8265;52.622;13.296;2023-11-19T07:40:48;4.10;99.80
16313;DHT22;8265;52.622;13.296;2023-11-19T07:46:12;4.10;99.70
16313;DHT22;8265;52.622;13.296;2023-11-19T07:51:30;4.10;99.70
16313;DHT22;8265;52.622;13.296;2023-11-19T07:56:51;4.20;99.90
16313;DHT22;8265;52.622;13.296;2023-11-19T08:02:12;4.20;99.90
16313;DHT22;8265;52.622;13.296;2023-11-19T08:07:33;4.30;99.90
16313;DHT22;8265;52.622;13.296;2023-11-19T08:12:54;4.40;99.90
16313;DHT22;8265;52.622;13.296;2023-11-19T08:18:15;4.50;99.90
16313;DHT22;8265;52.622;13.296;2023-11-19T08:23:36;4.60;99.90
16313;DHT22;8265;52.622;13.296;2023-11-19T08:28:57;4.70;99.90
16313;DHT22;8265;52.622;13.296;2023-11-19T08:34:18;4.70;99.90
16313;DHT22;8265;52.622;13.296;2023-11-19T08:39:39;4.90;99.90
16313;DHT22;8265;52.622;13.296;2023-11-19T08:45:00;5.10;99.90
16313;DHT22;8265;52.622;13.296;2023-11-19T08:50:21;5.30;99.90
16313;DHT22;8265;52.622;13.296;2023-11-19T08:55:42;5.50;99.70
16313;DHT22;8265;52.622;13.296;2023-11-19T09:01:03;5.70;99.70
16313;DHT22;8265;52.622;13.296;2023-11-19T09:06:24;5.70;99.20
16313;DHT22;8265;52.622;13.296;2023-11-19T09:11:45;5.70;99.10
16313;DHT22;8265;52.622;13.296;2023-11-19T09:17:06;5.80;99.50
16313;DHT22;8265;52.622;13.296;2023-11-19T09:22:27;6.00;99.80
16313;DHT22;8265;52.622;13.296;2023-11-19T09:27:48;6.30;99.90
16313;DHT22;8265;52.622;13.296;2023-11-19T09:33:09;6.50;99.50
16313;DHT22;8265;52.622;13.296;2023-11-19T09:38:30;6.70;99.30
16313;DHT22;8265;52.622;13.296;2023-11-19T09:43:51;6.90;99.10
16313;DHT22;8265;52.622;13.296;2023-11-19T09:49:12;7.20;99.10
16313;DHT22;8265;52.622;13.296;2023-11-19T09:54:33;7.20;98.70
16313;DHT22;8265;52.622;13.296;2023-11-19T09:59:54;7.30;99.00
16313;DHT22;8265;52.622;13.296;2023-11-19T10:05:15;7.20;99.10
16313;DHT22;8265;52.622;13.296;2023-11-19T10:10:36;7.50;99.60
16313;DHT22;8265;52.622;13.296;2023-11-19T10:15:57;7.80;99.50
16313;DHT22;8265;52.622;13.296;2023-11-19T10:21:18;7.90;99.10
16313;DHT22;8265;52.622;13.296;2023-11-19T10:26:39;8.20;99.00
16313;DHT22;8265;52.622;13.296;2023-11-19T10:32:00;8.30;98.70
16313;DHT22;8265;52.622;13.296;2023-11-19T10:37:27;8.40;98.20
16313;DHT22;8265;52.622;13.296;2023-11-19T10:42:42;8.30;98.50
16313;DHT22;8265;52.622;13.296;2023-11-19T10:48:03;8.40;98.90
16313;DHT22;8265;52.622;13.296;2023-11-19T10:53:24;8.50;99.10
16313;DHT22;8265;52.622;13.296;2023-11-19T10:58:45;8.50;99.10
16313;DHT22;8265;52.622;13.296;2023-11-19T11:04:06;8.90;99.30
16313;DHT22;8265;52.622;13.296;2023-11-19T11:09:27;9.20;98.80
16313;DHT22;8265;52.622;13.296;2023-11-19T11:14:48;9.50;97.60
16313;DHT22;8265;52.622;13.296;2023-11-19T11:20:09;9.60;96.50
16313;DHT22;8265;52.622;13.296;2023-11-19T11:36:19;10.60;93.80
16313;DHT22;8265;52.622;13.296;2023-11-19T11:41:33;10.80;91.60
16313;DHT22;8265;52.622;13.296;2023-11-19T11:46:54;11.00;90.60
16313;DHT22;8265;52.622;13.296;2023-11-19T11:52:15;11.00;88.80
16313;DHT22;8265;52.622;13.296;2023-11-19T11:57:36;10.80;89.40
16313;DHT22;8265;52.622;13.296;2023-11-19T12:02:57;10.90;89.50
16313;DHT22;8265;52.622;13.296;2023-11-19T12:08:18;10.90;89.50
16313;DHT22;8265;52.622;13.296;2023-11-19T12:13:54;10.90;89.00
16313;DHT22;8265;52.622;13.296;2023-11-19T12:19:02;10.90;89.00
16313;DHT22;8265;52.622;13.296;2023-11-19T12:24:20;10.70;88.70
16313;DHT22;8265;52.622;13.296;2023-11-19T12:29:42;10.70;88.70
16313;DHT22;8265;52.622;13.296;2023-11-19T12:35:03;10.80;88.50
16313;DHT22;8265;52.622;13.296;2023-11-19T12:40:24;10.70;89.30
16313;DHT22;8265;52.622;13.296;2023-11-19T12:45:44;10.50;90.50
16313;DHT22;8265;52.622;13.296;2023-11-19T12:51:05;10.20;91.50
16313;DHT22;8265;52.622;13.296;2023-11-19T12:56:26;10.10;91.90
16313;DHT22;8265;52.622;13.296;2023-11-19T13:01:57;10.00;92.20
16313;DHT22;8265;52.622;13.296;2023-11-19T13:07:08;10.10;92.10
16313;DHT22;8265;52.622;13.296;2023-11-19T13:12:29;10.20;91.70
16313;DHT22;8265;52.622;13.296;2023-11-19T13:17:50;10.30;90.70
16313;DHT22;8265;52.622;13.296;2023-11-19T13:23:11;10.30;89.70
16313;DHT22;8265;52.622;13.296;2023-11-19T13:28:32;10.40;88.80
16313;DHT22;8265;52.622;13.296;2023-11-19T13:33:53;10.40;88.30
16313;DHT22;8265;52.622;13.296;2023-11-19T13:39:14;10.30;88.00
16313;DHT22;8265;52.622;13.296;2023-11-19T13:44:35;10.30;87.90
16313;DHT22;8265;52.622;13.296;2023-11-19T13:49:56;10.30;87.80
16313;DHT22;8265;52.622;13.296;2023-11-19T13:55:17;10.30;87.20
16313;DHT22;8265;52.622;13.296;2023-11-19T14:00:38;10.40;86.80
16313;DHT22;8265;52.622;13.296;2023-11-19T14:05:59;10.40;86.70
16313;DHT22;8265;52.622;13.296;2023-11-19T14:11:20;10.40;87.60
16313;DHT22;8265;52.622;13.296;2023-11-19T14:16:41;10.30;87.30
16313;DHT22;8265;52.622;13.296;2023-11-19T14:22:02;10.40;87.50
16313;DHT22;8265;52.622;13.296;2023-11-19T14:27:23;10.40;87.50
16313;DHT22;8265;52.622;13.296;2023-11-19T14:32:44;10.30;87.90
16313;DHT22;8265;52.622;13.296;2023-11-19T14:38:05;10.20;88.40
16313;DHT22;8265;52.622;13.296;2023-11-19T14:43:26;10.00;89.00
16313;DHT22;8265;52.622;13.296;2023-11-19T14:48:47;10.00;88.90
16313;DHT22;8265;52.622;13.296;2023-11-19T14:54:08;10.00;88.50
16313;DHT22;8265;52.622;13.296;2023-11-19T14:59:29;10.10;88.10
16313;DHT22;8265;52.622;13.296;2023-11-19T15:04:50;10.10;88.00
16313;DHT22;8265;52.622;13.296;2023-11-19T15:10:11;10.10;87.60
16313;DHT22;8265;52.622;13.296;2023-11-19T15:15:32;10.10;87.70
16313;DHT22;8265;52.622;13.296;2023-11-19T15:20:53;10.10;87.60
16313;DHT22;8265;52.622;13.296;2023-11-19T15:26:14;10.00;87.60
16313;DHT22;8265;52.622;13.296;2023-11-19T15:31:36;10.00;87.70
16313;DHT22;8265;52.622;13.296;2023-11-19T15:36:56;10.00;87.70
16313;DHT22;8265;52.622;13.296;2023-11-19T15:42:17;10.00;87.80
16313;DHT22;8265;52.622;13.296;2023-11-19T15:47:38;10.00;88.00
16313;DHT22;8265;52.622;13.296;2023-11-19T15:52:59;10.00;87.50
16313;DHT22;8265;52.622;13.296;2023-11-19T15:58:20;10.00;87.60
16313;DHT22;8265;52.622;13.296;2023-11-19T16:03:41;10.00;87.90
16313;DHT22;8265;52.622;13.296;2023-11-19T16:09:02;9.80;88.20
16313;DHT22;8265;52.622;13.296;2023-11-19T16:14:23;9.80;88.50
16313;DHT22;8265;52.622;13.296;2023-11-19T16:19:44;9.80;88.30
16313;DHT22;8265;52.622;13.296;2023-11-19T16:25:05;9.80;90.00
16313;DHT22;8265;52.622;13.296;2023-11-19T16:30:26;9.50;91.40
16313;DHT22;8265;52.622;13.296;2023-11-19T16:35:47;9.40;92.90
16313;DHT22;8265;52.622;13.296;2023-11-19T16:41:08;9.30;94.00
16313;DHT22;8265;52.622;13.296;2023-11-19T16:46:29;9.20;95.20
16313;DHT22;8265;52.622;13.296;2023-11-19T16:51:50;9.20;95.60
16313;DHT22;8265;52.622;13.296;2023-11-19T16:57:11;9.20;95.40
16313;DHT22;8265;52.622;13.296;2023-11-19T17:02:32;9.10;95.70
16313;DHT22;8265;52.622;13.296;2023-11-19T17:07:53;9.20;94.90
16313;DHT22;8265;52.622;13.296;2023-11-19T17:13:14;9.20;94.40
16313;DHT22;8265;52.622;13.296;2023-11-19T17:18:35;9.20;94.80
16313;DHT22;8265;52.622;13.296;2023-11-19T17:23:56;9.10;95.40
16313;DHT22;8265;52.622;13.296;2023-11-19T17:29:17;9.10;95.80
16313;DHT22;8265;52.622;13.296;2023-11-19T17:34:38;9.00;96.40
16313;DHT22;8265;52.622;13.296;2023-11-19T17:39:59;9.00;96.50
16313;DHT22;8265;52.622;13.296;2023-11-19T17:45:20;9.00;96.90
16313;DHT22;8265;52.622;13.296;2023-11-19T17:50:41;9.00;97.50
16313;DHT22;8265;52.622;13.296;2023-11-19T17:56:02;9.00;97.10
16313;DHT22;8265;52.622;13.296;2023-11-19T18:01:23;9.00;95.90
16313;DHT22;8265;52.622;13.296;2023-11-19T18:06:44;8.90;95.80
16313;DHT22;8265;52.622;13.296;2023-11-19T18:12:05;8.80;95.40
16313;DHT22;8265;52.622;13.296;2023-11-19T18:17:26;8.70;95.50
16313;DHT22;8265;52.622;13.296;2023-11-19T18:22:47;8.60;96.40
16313;DHT22;8265;52.622;13.296;2023-11-19T18:28:07;8.50;96.90
16313;DHT22;8265;52.622;13.296;2023-11-19T18:33:28;8.40;97.30
16313;DHT22;8265;52.622;13.296;2023-11-19T18:38:49;8.30;97.40
16313;DHT22;8265;52.622;13.296;2023-11-19T18:44:10;8.20;97.60
16313;DHT22;8265;52.622;13.296;2023-11-19T18:49:31;8.10;98.10
16313;DHT22;8265;52.622;13.296;2023-11-19T18:54:52;8.20;98.60
16313;DHT22;8265;52.622;13.296;2023-11-19T19:00:14;8.20;98.60
16313;DHT22;8265;52.622;13.296;2023-11-19T19:05:34;8.20;98.50
16313;DHT22;8265;52.622;13.296;2023-11-19T19:10:55;8.10;98.30
16313;DHT22;8265;52.622;13.296;2023-11-19T19:16:16;8.10;98.40
16313;DHT22;8265;52.622;13.296;2023-11-19T19:21:37;8.20;98.50
16313;DHT22;8265;52.622;13.296;2023-11-19T19:26:58;8.20;98.30
16313;DHT22;8265;52.622;13.296;2023-11-19T19:32:19;8.30;98.00
16313;DHT22;8265;52.622;13.296;2023-11-19T19:37:40;8.30;98.10
16313;DHT22;8265;52.622;13.296;2023-11-19T19:43:01;8.30;98.20
16313;DHT22;8265;52.622;13.296;2023-11-19T19:48:22;8.40;97.80
16313;DHT22;8265;52.622;13.296;2023-11-19T19:53:43;8.40;97.50
16313;DHT22;8265;52.622;13.296;2023-11-19T19:59:04;8.40;97.50
16313;DHT22;8265;52.622;13.296;2023-11-19T20:04:25;8.50;97.70
16313;DHT22;8265;52.622;13.296;2023-11-19T20:09:46;8.50;97.60
16313;DHT22;8265;52.622;13.296;2023-11-19T20:15:08;8.50;97.50
16313;DHT22;8265;52.622;13.296;2023-11-19T20:20:28;8.40;97.80
16313;DHT22;8265;52.622;13.296;2023-11-19T20:25:49;8.40;98.00
16313;DHT22;8265;52.622;13.296;2023-11-19T20:31:10;8.40;98.20
16313;DHT22;8265;52.622;13.296;2023-11-19T20:36:31;8.50;98.40
16313;DHT22;8265;52.622;13.296;2023-11-19T20:41:52;8.50;98.20
16313;DHT22;8265;52.622;13.296;2023-11-19T20:47:13;8.60;98.10
16313;DHT22;8265;52.622;13.296;2023-11-19T20:52:34;8.60;98.20
16313;DHT22;8265;52.622;13.296;2023-11-19T20:57:55;8.60;97.90
16313;DHT22;8265;52.622;13.296;2023-11-19T21:03:16;8.60;97.90
16313;DHT22;8265;52.622;13.296;2023-11-19T21:08:37;8.70;97.80
16313;DHT22;8265;52.622;13.296;2023-11-19T21:13:58;8.60;97.80
16313;DHT22;8265;52.622;13.296;2023-11-19T21:19:19;8.60;97.90
16313;DHT22;8265;52.622;13.296;2023-11-19T21:24:40;8.60;97.90
16313;DHT22;8265;52.622;13.296;2023-11-19T21:30:01;8.60;98.00
16313;DHT22;8265;52.622;13.296;2023-11-19T21:35:22;8.60;98.10
16313;DHT22;8265;52.622;13.296;2023-11-19T21:40:43;8.60;98.10
16313;DHT22;8265;52.622;13.296;2023-11-19T21:46:04;8.60;98.10
16313;DHT22;8265;52.622;13.296;2023-11-19T21:51:25;8.50;97.90
16313;DHT22;8265;52.622;13.296;2023-11-19T21:56:46;8.40;97.80
16313;DHT22;8265;52.622;13.296;2023-11-19T22:02:07;8.30;98.30
16313;DHT22;8265;52.622;13.296;2023-11-19T22:07:28;8.40;98.50
16313;DHT22;8265;52.622;13.296;2023-11-19T22:12:49;8.40;98.30
16313;DHT22;8265;52.622;13.296;2023-11-19T22:18:10;8.40;98.30
16313;DHT22;8265;52.622;13.296;2023-11-19T22:23:31;8.50;98.20
16313;DHT22;8265;52.622;13.296;2023-11-19T22:28:52;8.50;97.80
16313;DHT22;8265;52.622;13.296;2023-11-19T22:34:13;8.60;97.80
16313;DHT22;8265;52.622;13.296;2023-11-19T22:39:34;8.60;97.80
16313;DHT22;8265;52.622;13.296;2023-11-19T22:44:55;8.60;97.90
16313;DHT22;8265;52.622;13.296;2023-11-19T22:50:16;8.60;97.80
16313;DHT22;8265;52.622;13.296;2023-11-19T22:55:37;8.60;97.80
16313;DHT22;8265;52.622;13.296;2023-11-19T23:00:58;8.60;98.00
16313;DHT22;8265;52.622;13.296;2023-11-19T23:06:19;8.60;98.00
16313;DHT22;8265;52.622;13.296;2023-11-19T23:11:40;8.60;98.00
16313;DHT22;8265;52.622;13.296;2023-11-19T23:17:01;8.60;98.00
16313;DHT22;8265;52.622;13.296;2023-11-19T23:22:22;8.60;98.00
16313;DHT22;8265;52.622;13.296;2023-11-19T23:27:43;8.70;97.90
16313;DHT22;8265;52.622;13.296;2023-11-19T23:33:04;8.80;97.90
16313;DHT22;8265;52.622;13.296;2023-11-19T23:38:25;8.80;97.90
16313;DHT22;8265;52.622;13.296;2023-11-19T23:43:46;8.70;98.10
16313;DHT22;8265;52.622;13.296;2023-11-19T23:49:07;8.80;98.20
16313;DHT22;8265;52.622;13.296;2023-11-19T23:54:28;8.80;98.10
16313;DHT22;8265;52.622;13.296;2023-11-19T23:59:49;8.80;98.00
